sensor_id;sensor_type;location;lat;lon;timestamp;pressure;altitude;pressure_sealevel;temperature
48854;BMP280;34673;52.808;17.856;2023-04-19T00:00:13;101184.44;;;7.64
48854;BMP280;34673;52.808;17.856;2023-04-19T00:02:41;101180.16;;;7.63
48854;BMP280;34673;52.808;17.856;2023-04-19T00:05:09;101174.03;;;7.58
48854;BMP280;34673;52.808;17.856;2023-04-19T00:07:38;101170.53;;;7.52
48854;BMP280;34673;52.808;17.856;2023-04-19T00:10:06;101169.66;;;7.52
48854;BMP280;34673;52.808;17.856;2023-04-19T00:12:33;101153.31;;;7.51
48854;BMP280;34673;52.808;17.856;2023-04-19T00:15:00;101151.53;;;7.47
48854;BMP280;34673;52.808;17.856;2023-04-19T00:17:28;101142.84;;;7.41
48854;BMP280;34673;52.808;17.856;2023-04-19T00:19:55;101151.50;;;7.46
48854;BMP280;34673;52.808;17.856;2023-04-19T00:22:23;101158.31;;;7.42
48854;BMP280;34673;52.808;17.856;2023-04-19T00:24:52;101149.66;;;7.37
48854;BMP280;34673;52.808;17.856;2023-04-19T00:27:19;101147.88;;;7.33
48854;BMP280;34673;52.808;17.856;2023-04-19T00:29:46;101152.94;;;7.30
48854;BMP280;34673;52.808;17.856;2023-04-19T00:32:14;101148.63;;;7.29
48854;BMP280;34673;52.808;17.856;2023-04-19T00:34:42;101141.63;;;7.20
48854;BMP280;34673;52.808;17.856;2023-04-19T00:37:09;101144.06;;;7.13
48854;BMP280;34673;52.808;17.856;2023-04-19T00:39:38;101133.56;;;7.00
48854;BMP280;34673;52.808;17.856;2023-04-19T00:42:05;101142.88;;;6.97
48854;BMP280;34673;52.808;17.856;2023-04-19T00:44:32;101136.56;;;6.81
48854;BMP280;34673;52.808;17.856;2023-04-19T00:47:00;101143.28;;;6.73
48854;BMP280;34673;52.808;17.856;2023-04-19T00:49:28;101136.34;;;6.69
48854;BMP280;34673;52.808;17.856;2023-04-19T00:51:55;101143.16;;;6.66
48854;BMP280;34673;52.808;17.856;2023-04-19T00:54:23;101143.94;;;6.62
48854;BMP280;34673;52.808;17.856;2023-04-19T00:56:51;101140.34;;;6.54
48854;BMP280;34673;52.808;17.856;2023-04-19T00:59:18;101141.03;;;6.47
48854;BMP280;34673;52.808;17.856;2023-04-19T01:01:45;101144.25;;;6.37
48854;BMP280;34673;52.808;17.856;2023-04-19T01:04:14;101130.34;;;6.29
48854;BMP280;34673;52.808;17.856;2023-04-19T01:06:42;101132.81;;;6.22
48854;BMP280;34673;52.808;17.856;2023-04-19T01:09:10;101133.59;;;6.20
48854;BMP280;34673;52.808;17.856;2023-04-19T01:11:39;101130.91;;;6.14
48854;BMP280;34673;52.808;17.856;2023-04-19T01:14:09;101119.53;;;6.04
48854;BMP280;34673;52.808;17.856;2023-04-19T01:16:36;101126.34;;;6.02
48854;BMP280;34673;52.808;17.856;2023-04-19T01:19:05;101119.47;;;6.01
48854;BMP280;34673;52.808;17.856;2023-04-19T01:21:32;101121.94;;;5.96
48854;BMP280;34673;52.808;17.856;2023-04-19T01:24:04;101120.97;;;5.93
48854;BMP280;34673;52.808;17.856;2023-04-19T01:26:31;101103.66;;;5.86
48854;BMP280;34673;52.808;17.856;2023-04-19T01:29:01;101117.28;;;5.82
48854;BMP280;34673;52.808;17.856;2023-04-19T01:31:29;101120.75;;;5.84
48854;BMP280;34673;52.808;17.856;2023-04-19T01:33:56;101120.66;;;5.81
48854;BMP280;34673;52.808;17.856;2023-04-19T01:36:23;101120.59;;;5.77
48854;BMP280;34673;52.808;17.856;2023-04-19T01:38:50;101114.47;;;5.72
48854;BMP280;34673;52.808;17.856;2023-04-19T01:41:18;101112.75;;;5.71
48854;BMP280;34673;52.808;17.856;2023-04-19T01:43:47;101110.06;;;5.65
48854;BMP280;34673;52.808;17.856;2023-04-19T01:46:15;101110.13;;;5.68
48854;BMP280;34673;52.808;17.856;2023-04-19T01:48:42;101099.00;;;5.68
48854;BMP280;34673;52.808;17.856;2023-04-19T01:51:10;101104.91;;;5.65
48854;BMP280;34673;52.808;17.856;2023-04-19T01:53:37;101103.06;;;5.60
48854;BMP280;34673;52.808;17.856;2023-04-19T01:56:05;101092.69;;;5.55
48854;BMP280;34673;52.808;17.856;2023-04-19T01:58:32;101096.16;;;5.57
48854;BMP280;34673;52.808;17.856;2023-04-19T02:00:59;101092.75;;;5.58
48854;BMP280;34673;52.808;17.856;2023-04-19T02:03:26;101084.13;;;5.54
48854;BMP280;34673;52.808;17.856;2023-04-19T02:05:54;101080.47;;;5.45
48854;BMP280;34673;52.808;17.856;2023-04-19T02:08:21;101071.94;;;5.46
48854;BMP280;34673;52.808;17.856;2023-04-19T02:10:48;101071.78;;;5.40
48854;BMP280;34673;52.808;17.856;2023-04-19T02:13:16;101070.06;;;5.39
48854;BMP280;34673;52.808;17.856;2023-04-19T02:15:43;101070.97;;;5.42
48854;BMP280;34673;52.808;17.856;2023-04-19T02:18:10;101073.47;;;5.38
48854;BMP280;34673;52.808;17.856;2023-04-19T02:20:39;101070.06;;;5.39
48854;BMP280;34673;52.808;17.856;2023-04-19T02:23:06;101066.56;;;5.37
48854;BMP280;34673;52.808;17.856;2023-04-19T02:25:34;101065.75;;;5.38
48854;BMP280;34673;52.808;17.856;2023-04-19T02:28:01;101056.31;;;5.37
48854;BMP280;34673;52.808;17.856;2023-04-19T02:30:28;101052.03;;;5.37
48854;BMP280;34673;52.808;17.856;2023-04-19T02:32:56;101054.72;;;5.42
48854;BMP280;34673;52.808;17.856;2023-04-19T02:35:24;101056.44;;;5.43
48854;BMP280;34673;52.808;17.856;2023-04-19T02:37:52;101050.38;;;5.38
48854;BMP280;34673;52.808;17.856;2023-04-19T02:40:19;101045.97;;;5.33
48854;BMP280;34673;52.808;17.856;2023-04-19T02:42:49;101043.41;;;5.33
48854;BMP280;34673;52.808;17.856;2023-04-19T02:45:17;101041.72;;;5.34
48854;BMP280;34673;52.808;17.856;2023-04-19T02:47:45;101040.91;;;5.37
48854;BMP280;34673;52.808;17.856;2023-04-19T02:50:14;101022.91;;;5.33
48854;BMP280;34673;52.808;17.856;2023-04-19T02:52:47;101023.72;;;5.32
48854;BMP280;34673;52.808;17.856;2023-04-19T02:55:14;101025.31;;;5.27
48854;BMP280;34673;52.808;17.856;2023-04-19T02:57:43;101009.78;;;5.21
48854;BMP280;34673;52.808;17.856;2023-04-19T03:00:11;101004.50;;;5.15
48854;BMP280;34673;52.808;17.856;2023-04-19T03:02:43;101007.06;;;5.15
48854;BMP280;34673;52.808;17.856;2023-04-19T03:05:10;101006.06;;;5.10
48854;BMP280;34673;52.808;17.856;2023-04-19T03:07:37;101000.94;;;5.10
48854;BMP280;34673;52.808;17.856;2023-04-19T03:10:06;100994.03;;;5.06
48854;BMP280;34673;52.808;17.856;2023-04-19T03:12:33;100994.22;;;5.14
48854;BMP280;34673;52.808;17.856;2023-04-19T03:15:00;100995.97;;;5.16
48854;BMP280;34673;52.808;17.856;2023-04-19T03:17:28;100992.44;;;5.11
48854;BMP280;34673;52.808;17.856;2023-04-19T03:19:55;100993.19;;;5.07
48854;BMP280;34673;52.808;17.856;2023-04-19T03:22:23;100992.19;;;5.02
48854;BMP280;34673;52.808;17.856;2023-04-19T03:24:51;100980.88;;;4.94
48854;BMP280;34673;52.808;17.856;2023-04-19T03:27:21;100987.00;;;4.99
48854;BMP280;34673;52.808;17.856;2023-04-19T03:29:55;100980.16;;;4.98
48854;BMP280;34673;52.808;17.856;2023-04-19T03:32:23;100981.06;;;5.00
48854;BMP280;34673;52.808;17.856;2023-04-19T03:34:50;100981.88;;;4.99
48854;BMP280;34673;52.808;17.856;2023-04-19T03:37:18;100979.34;;;5.00
48854;BMP280;34673;52.808;17.856;2023-04-19T03:39:45;100982.81;;;5.02
48854;BMP280;34673;52.808;17.856;2023-04-19T03:42:18;100984.69;;;5.08
48854;BMP280;34673;52.808;17.856;2023-04-19T03:45:03;100977.97;;;5.13
48854;BMP280;34673;52.808;17.856;2023-04-19T03:47:34;100978.91;;;5.18
48854;BMP280;34673;52.808;17.856;2023-04-19T03:50:02;100979.81;;;5.20
48854;BMP280;34673;52.808;17.856;2023-04-19T03:52:31;100968.66;;;5.18
48854;BMP280;34673;52.808;17.856;2023-04-19T03:54:59;100971.44;;;5.27
48854;BMP280;34673;52.808;17.856;2023-04-19T03:57:38;100972.44;;;5.32
48854;BMP280;34673;52.808;17.856;2023-04-19T04:00:17;100965.63;;;5.34
48854;BMP280;34673;52.808;17.856;2023-04-19T04:02:51;100957.16;;;5.39
48854;BMP280;34673;52.808;17.856;2023-04-19T04:05:21;100967.56;;;5.45
48854;BMP280;34673;52.808;17.856;2023-04-19T04:07:48;100955.72;;;5.50
48854;BMP280;34673;52.808;17.856;2023-04-19T04:10:17;100948.91;;;5.52
48854;BMP280;34673;52.808;17.856;2023-04-19T04:12:45;100950.63;;;5.51
48854;BMP280;34673;52.808;17.856;2023-04-19T04:15:18;100955.84;;;5.56
48854;BMP280;34673;52.808;17.856;2023-04-19T04:17:50;100956.78;;;5.60
48854;BMP280;34673;52.808;17.856;2023-04-19T04:20:19;100955.84;;;5.56
48854;BMP280;34673;52.808;17.856;2023-04-19T04:22:47;100949.88;;;5.57
48854;BMP280;34673;52.808;17.856;2023-04-19T04:25:16;100945.50;;;5.53
48854;BMP280;34673;52.808;17.856;2023-04-19T04:27:49;100954.09;;;5.55
48854;BMP280;34673;52.808;17.856;2023-04-19T04:30:18;100948.25;;;5.61
48854;BMP280;34673;52.808;17.856;2023-04-19T04:32:45;100947.44;;;5.63
48854;BMP280;34673;52.808;17.856;2023-04-19T04:35:13;100950.13;;;5.68
48854;BMP280;34673;52.808;17.856;2023-04-19T04:38:00;100945.84;;;5.68
48854;BMP280;34673;52.808;17.856;2023-04-19T04:40:49;100935.47;;;5.62
48854;BMP280;34673;52.808;17.856;2023-04-19T04:43:17;100940.72;;;5.68
48854;BMP280;34673;52.808;17.856;2023-04-19T04:45:47;100939.00;;;5.67
48854;BMP280;34673;52.808;17.856;2023-04-19T04:48:14;100947.56;;;5.69
48854;BMP280;34673;52.808;17.856;2023-04-19T04:50:42;100928.78;;;5.70
48854;BMP280;34673;52.808;17.856;2023-04-19T04:53:10;100939.94;;;5.72
48854;BMP280;34673;52.808;17.856;2023-04-19T04:55:42;100939.06;;;5.70
48854;BMP280;34673;52.808;17.856;2023-04-19T04:58:10;100941.69;;;5.75
48854;BMP280;34673;52.808;17.856;2023-04-19T05:00:51;100945.97;;;5.74
48854;BMP280;34673;52.808;17.856;2023-04-19T05:03:18;100947.69;;;5.74
48854;BMP280;34673;52.808;17.856;2023-04-19T05:05:52;100942.50;;;5.72
48854;BMP280;34673;52.808;17.856;2023-04-19T05:08:20;100940.78;;;5.71
48854;BMP280;34673;52.808;17.856;2023-04-19T05:10:48;100948.63;;;5.79
48854;BMP280;34673;52.808;17.856;2023-04-19T05:13:17;100944.44;;;5.83
48854;BMP280;34673;52.808;17.856;2023-04-19T05:15:45;100945.34;;;5.85
48854;BMP280;34673;52.808;17.856;2023-04-19T05:18:13;100947.91;;;5.85
48854;BMP280;34673;52.808;17.856;2023-04-19T05:20:41;100947.06;;;5.86
48854;BMP280;34673;52.808;17.856;2023-04-19T05:23:17;100939.41;;;5.89
48854;BMP280;34673;52.808;17.856;2023-04-19T05:25:45;100938.66;;;5.93
48854;BMP280;34673;52.808;17.856;2023-04-19T05:28:12;100924.19;;;5.95
48854;BMP280;34673;52.808;17.856;2023-04-19T05:31:11;100927.81;;;6.06
48854;BMP280;34673;52.808;17.856;2023-04-19T05:33:51;100909.84;;;6.06
48854;BMP280;34673;52.808;17.856;2023-04-19T05:36:19;100921.13;;;6.14
48854;BMP280;34673;52.808;17.856;2023-04-19T05:38:46;100921.03;;;6.10
48854;BMP280;34673;52.808;17.856;2023-04-19T05:41:15;100915.75;;;6.02
48854;BMP280;34673;52.808;17.856;2023-04-19T05:43:44;100915.84;;;6.07
48854;BMP280;34673;52.808;17.856;2023-04-19T05:46:13;100914.06;;;6.04
48854;BMP280;34673;52.808;17.856;2023-04-19T05:48:41;100914.19;;;6.10
48854;BMP280;34673;52.808;17.856;2023-04-19T05:51:29;100914.19;;;6.10
48854;BMP280;34673;52.808;17.856;2023-04-19T05:54:05;100909.00;;;6.07
48854;BMP280;34673;52.808;17.856;2023-04-19T05:56:34;100910.66;;;6.05
48854;BMP280;34673;52.808;17.856;2023-04-19T05:59:02;100914.97;;;6.06
48854;BMP280;34673;52.808;17.856;2023-04-19T06:01:30;100919.28;;;6.07
48854;BMP280;34673;52.808;17.856;2023-04-19T06:03:58;100913.28;;;6.07
48854;BMP280;34673;52.808;17.856;2023-04-19T06:06:27;100901.25;;;6.04
48854;BMP280;34673;52.808;17.856;2023-04-19T06:08:55;100897.00;;;6.06
48854;BMP280;34673;52.808;17.856;2023-04-19T06:11:24;100891.81;;;6.03
48854;BMP280;34673;52.808;17.856;2023-04-19T06:14:04;100896.81;;;5.97
48854;BMP280;34673;52.808;17.856;2023-04-19T06:16:32;100901.06;;;5.95
48854;BMP280;34673;52.808;17.856;2023-04-19T06:19:00;100908.78;;;5.95
48854;BMP280;34673;52.808;17.856;2023-04-19T06:21:31;100903.63;;;5.95
48854;BMP280;34673;52.808;17.856;2023-04-19T06:23:59;100901.94;;;5.97
48854;BMP280;34673;52.808;17.856;2023-04-19T06:26:27;100896.81;;;5.97
48854;BMP280;34673;52.808;17.856;2023-04-19T06:28:59;100895.13;;;5.97
48854;BMP280;34673;52.808;17.856;2023-04-19T06:32:20;100896.75;;;5.94
48854;BMP280;34673;52.808;17.856;2023-04-19T06:36:07;100898.47;;;5.93
48854;BMP280;34673;52.808;17.856;2023-04-19T06:39:13;100864.19;;;5.93
48854;BMP280;34673;52.808;17.856;2023-04-19T06:42:12;100858.28;;;5.95
48854;BMP280;34673;52.808;17.856;2023-04-19T06:44:54;100857.53;;;6.01
48854;BMP280;34673;52.808;17.856;2023-04-19T06:47:40;100864.44;;;6.05
48854;BMP280;34673;52.808;17.856;2023-04-19T06:50:36;100886.72;;;6.06
48854;BMP280;34673;52.808;17.856;2023-04-19T06:53:38;100891.88;;;6.06
48854;BMP280;34673;52.808;17.856;2023-04-19T06:56:46;100898.66;;;6.04
48854;BMP280;34673;52.808;17.856;2023-04-19T06:59:44;100908.03;;;6.01
48854;BMP280;34673;52.808;17.856;2023-04-19T07:02:48;100903.75;;;6.01
48854;BMP280;34673;52.808;17.856;2023-04-19T07:05:31;100903.69;;;5.98
48854;BMP280;34673;52.808;17.856;2023-04-19T07:08:30;100888.22;;;5.95
48854;BMP280;34673;52.808;17.856;2023-04-19T07:11:45;100875.22;;;5.89
48854;BMP280;34673;52.808;17.856;2023-04-19T07:14:45;100872.53;;;5.83
48854;BMP280;34673;52.808;17.856;2023-04-19T07:17:44;100853.75;;;5.84
48854;BMP280;34673;52.808;17.856;2023-04-19T07:20:30;100852.91;;;5.86
48854;BMP280;34673;52.808;17.856;2023-04-19T07:23:26;100846.06;;;5.85
48854;BMP280;34673;52.808;17.856;2023-04-19T07:26:56;100843.47;;;5.84
48854;BMP280;34673;52.808;17.856;2023-04-19T07:29:59;100848.69;;;5.87
48854;BMP280;34673;52.808;17.856;2023-04-19T07:33:28;100839.16;;;5.83
48854;BMP280;34673;52.808;17.856;2023-04-19T07:35:55;100846.16;;;5.91
48854;BMP280;34673;52.808;17.856;2023-04-19T07:38:23;100841.03;;;5.91
48854;BMP280;34673;52.808;17.856;2023-04-19T07:40:50;100848.69;;;5.88
48854;BMP280;34673;52.808;17.856;2023-04-19T07:43:18;100845.25;;;5.88
48854;BMP280;34673;52.808;17.856;2023-04-19T07:45:45;100840.13;;;5.88
48854;BMP280;34673;52.808;17.856;2023-04-19T07:48:12;100835.00;;;5.88
48854;BMP280;34673;52.808;17.856;2023-04-19T07:50:39;100842.66;;;5.86
48854;BMP280;34673;52.808;17.856;2023-04-19T07:53:06;100846.94;;;5.86
48854;BMP280;34673;52.808;17.856;2023-04-19T07:55:33;100848.63;;;5.84
48854;BMP280;34673;52.808;17.856;2023-04-19T07:58:01;100835.75;;;5.82
48854;BMP280;34673;52.808;17.856;2023-04-19T08:00:28;100838.31;;;5.82
48854;BMP280;34673;52.808;17.856;2023-04-19T08:03:02;100838.34;;;5.84
48854;BMP280;34673;52.808;17.856;2023-04-19T08:05:30;100836.59;;;5.83
48854;BMP280;34673;52.808;17.856;2023-04-19T08:07:58;100840.06;;;5.85
48854;BMP280;34673;52.808;17.856;2023-04-19T08:10:25;100835.00;;;5.88
48854;BMP280;34673;52.808;17.856;2023-04-19T08:12:54;100840.06;;;5.85
48854;BMP280;34673;52.808;17.856;2023-04-19T08:15:34;100837.47;;;5.83
48854;BMP280;34673;52.808;17.856;2023-04-19T08:18:04;100840.03;;;5.82
48854;BMP280;34673;52.808;17.856;2023-04-19T08:20:32;100829.56;;;5.72
48854;BMP280;34673;52.808;17.856;2023-04-19T08:22:59;100831.31;;;5.73
48854;BMP280;34673;52.808;17.856;2023-04-19T08:25:40;100832.06;;;5.68
48854;BMP280;34673;52.808;17.856;2023-04-19T08:28:07;100833.81;;;5.70
48854;BMP280;34673;52.808;17.856;2023-04-19T08:30:34;100826.06;;;5.67
48854;BMP280;34673;52.808;17.856;2023-04-19T08:33:01;100832.06;;;5.68
48854;BMP280;34673;52.808;17.856;2023-04-19T08:35:29;100839.72;;;5.66
48854;BMP280;34673;52.808;17.856;2023-04-19T08:37:56;100836.19;;;5.61
48854;BMP280;34673;52.808;17.856;2023-04-19T08:40:23;100831.91;;;5.62
48854;BMP280;34673;52.808;17.856;2023-04-19T08:42:50;100840.50;;;5.62
48854;BMP280;34673;52.808;17.856;2023-04-19T08:45:18;100837.13;;;5.65
48854;BMP280;34673;52.808;17.856;2023-04-19T08:47:50;100825.91;;;5.61
48854;BMP280;34673;52.808;17.856;2023-04-19T08:50:28;100840.50;;;5.64
48854;BMP280;34673;52.808;17.856;2023-04-19T08:53:00;100839.66;;;5.63
48854;BMP280;34673;52.808;17.856;2023-04-19T08:55:31;100837.94;;;5.62
48854;BMP280;34673;52.808;17.856;2023-04-19T08:57:58;100841.38;;;5.64
48854;BMP280;34673;52.808;17.856;2023-04-19T09:00:28;100839.72;;;5.66
48854;BMP280;34673;52.808;17.856;2023-04-19T09:02:55;100837.13;;;5.65
48854;BMP280;34673;52.808;17.856;2023-04-19T09:05:22;100824.25;;;5.63
48854;BMP280;34673;52.808;17.856;2023-04-19T09:07:50;100830.47;;;5.74
48854;BMP280;34673;52.808;17.856;2023-04-19T09:10:19;100838.19;;;5.76
48854;BMP280;34673;52.808;17.856;2023-04-19T09:13:01;100827.94;;;5.77
48854;BMP280;34673;52.808;17.856;2023-04-19T09:15:39;100829.69;;;5.78
48854;BMP280;34673;52.808;17.856;2023-04-19T09:18:08;100828.91;;;5.83
48854;BMP280;34673;52.808;17.856;2023-04-19T09:20:41;100817.81;;;5.84
48854;BMP280;34673;52.808;17.856;2023-04-19T09:23:17;100823.00;;;5.87
48854;BMP280;34673;52.808;17.856;2023-04-19T09:25:56;100816.22;;;5.90
48854;BMP280;34673;52.808;17.856;2023-04-19T09:28:59;100812.97;;;5.99
48854;BMP280;34673;52.808;17.856;2023-04-19T09:31:32;100814.81;;;6.06
48854;BMP280;34673;52.808;17.856;2023-04-19T09:34:17;100819.97;;;6.06
48854;BMP280;34673;52.808;17.856;2023-04-19T09:36:45;100814.81;;;6.06
48854;BMP280;34673;52.808;17.856;2023-04-19T09:39:12;100813.03;;;6.02
48854;BMP280;34673;52.808;17.856;2023-04-19T09:42:07;100818.16;;;6.02
48854;BMP280;34673;52.808;17.856;2023-04-19T09:44:34;100809.50;;;5.97
48854;BMP280;34673;52.808;17.856;2023-04-19T09:47:22;100815.50;;;5.96
48854;BMP280;34673;52.808;17.856;2023-04-19T09:50:09;100816.38;;;5.98
48854;BMP280;34673;52.808;17.856;2023-04-19T09:52:51;100816.44;;;6.01
48854;BMP280;34673;52.808;17.856;2023-04-19T09:55:18;100818.09;;;5.99
48854;BMP280;34673;52.808;17.856;2023-04-19T09:57:49;100818.09;;;5.99
48854;BMP280;34673;52.808;17.856;2023-04-19T10:00:18;100808.63;;;5.95
48854;BMP280;34673;52.808;17.856;2023-04-19T10:02:50;100806.13;;;5.98
48854;BMP280;34673;52.808;17.856;2023-04-19T10:05:22;100799.22;;;5.97
48854;BMP280;34673;52.808;17.856;2023-04-19T10:07:51;100801.09;;;6.04
48854;BMP280;34673;52.808;17.856;2023-04-19T10:10:24;100804.56;;;6.06
48854;BMP280;34673;52.808;17.856;2023-04-19T10:13:10;100796.94;;;6.11
48854;BMP280;34673;52.808;17.856;2023-04-19T10:15:42;100792.72;;;6.16
48854;BMP280;34673;52.808;17.856;2023-04-19T10:18:19;100797.97;;;6.24
48854;BMP280;34673;52.808;17.856;2023-04-19T10:20:52;100799.81;;;6.31
48854;BMP280;34673;52.808;17.856;2023-04-19T10:23:21;100794.81;;;6.38
48854;BMP280;34673;52.808;17.856;2023-04-19T10:25:54;100780.31;;;6.42
48854;BMP280;34673;52.808;17.856;2023-04-19T10:28:22;100784.72;;;6.51
48854;BMP280;34673;52.808;17.856;2023-04-19T10:31:03;100781.31;;;6.53
48854;BMP280;34673;52.808;17.856;2023-04-19T10:33:36;100772.78;;;6.54
48854;BMP280;34673;52.808;17.856;2023-04-19T10:36:06;100774.56;;;6.58
48854;BMP280;34673;52.808;17.856;2023-04-19T10:38:39;100774.69;;;6.68
48854;BMP280;34673;52.808;17.856;2023-04-19T10:41:09;100778.13;;;6.70
48854;BMP280;34673;52.808;17.856;2023-04-19T10:44:07;100773.91;;;6.72
48854;BMP280;34673;52.808;17.856;2023-04-19T10:46:36;100776.47;;;6.72
48854;BMP280;34673;52.808;17.856;2023-04-19T10:49:06;100771.31;;;6.72
48854;BMP280;34673;52.808;17.856;2023-04-19T10:51:39;100774.81;;;6.77
48854;BMP280;34673;52.808;17.856;2023-04-19T10:54:29;100774.00;;;6.81
48854;BMP280;34673;52.808;17.856;2023-04-19T10:57:01;100774.91;;;6.83
48854;BMP280;34673;52.808;17.856;2023-04-19T10:59:33;100769.78;;;6.86
48854;BMP280;34673;52.808;17.856;2023-04-19T11:02:25;100768.16;;;6.91
48854;BMP280;34673;52.808;17.856;2023-04-19T11:07:21;100768.31;;;7.00
48854;BMP280;34673;52.808;17.856;2023-04-19T11:09:48;100772.66;;;7.06
48854;BMP280;34673;52.808;17.856;2023-04-19T11:12:18;100773.56;;;7.09
48854;BMP280;34673;52.808;17.856;2023-04-19T11:14:56;100770.22;;;7.17
48854;BMP280;34673;52.808;17.856;2023-04-19T11:17:25;100767.72;;;7.24
48854;BMP280;34673;52.808;17.856;2023-04-19T11:20:07;100758.38;;;7.31
48854;BMP280;34673;52.808;17.856;2023-04-19T11:22:44;100761.91;;;7.39
48854;BMP280;34673;52.808;17.856;2023-04-19T11:25:19;100758.53;;;7.46
48854;BMP280;34673;52.808;17.856;2023-04-19T11:27:49;100763.75;;;7.49
48854;BMP280;34673;52.808;17.856;2023-04-19T11:30:19;100762.91;;;7.52
48854;BMP280;34673;52.808;17.856;2023-04-19T11:32:50;100765.50;;;7.53
48854;BMP280;34673;52.808;17.856;2023-04-19T11:35:22;100763.81;;;7.55
48854;BMP280;34673;52.808;17.856;2023-04-19T11:37:49;100758.66;;;7.55
48854;BMP280;34673;52.808;17.856;2023-04-19T11:40:18;100762.09;;;7.54
48854;BMP280;34673;52.808;17.856;2023-04-19T11:42:46;100756.88;;;7.51
48854;BMP280;34673;52.808;17.856;2023-04-19T11:45:32;100764.59;;;7.51
48854;BMP280;34673;52.808;17.856;2023-04-19T11:48:05;100763.78;;;7.52
48854;BMP280;34673;52.808;17.856;2023-04-19T11:50:36;100763.81;;;7.55
48854;BMP280;34673;52.808;17.856;2023-04-19T11:53:21;100762.13;;;7.58
48854;BMP280;34673;52.808;17.856;2023-04-19T11:55:52;100760.41;;;7.60
48854;BMP280;34673;52.808;17.856;2023-04-19T12:01:17;100765.66;;;7.69
48854;BMP280;34673;52.808;17.856;2023-04-19T12:03:53;100767.41;;;7.73
48854;BMP280;34673;52.808;17.856;2023-04-19T12:06:24;100764.06;;;7.80
48854;BMP280;34673;52.808;17.856;2023-04-19T12:08:53;100767.53;;;7.85
48854;BMP280;34673;52.808;17.856;2023-04-19T12:11:23;100767.56;;;7.88
48854;BMP280;34673;52.808;17.856;2023-04-19T12:14:08;100765.84;;;7.87
48854;BMP280;34673;52.808;17.856;2023-04-19T12:16:35;100762.34;;;7.79
48854;BMP280;34673;52.808;17.856;2023-04-19T12:19:14;100765.75;;;7.81
48854;BMP280;34673;52.808;17.856;2023-04-19T12:21:45;100767.50;;;7.79
48854;BMP280;34673;52.808;17.856;2023-04-19T12:24:16;100757.09;;;7.73
48854;BMP280;34673;52.808;17.856;2023-04-19T12:26:52;100759.66;;;7.70
48854;BMP280;34673;52.808;17.856;2023-04-19T12:29:25;100759.66;;;7.68
48854;BMP280;34673;52.808;17.856;2023-04-19T12:31:52;100756.25;;;7.71
48854;BMP280;34673;52.808;17.856;2023-04-19T12:34:20;100754.56;;;7.74
48854;BMP280;34673;52.808;17.856;2023-04-19T12:36:47;100762.34;;;7.79
48854;BMP280;34673;52.808;17.856;2023-04-19T12:39:14;100764.94;;;7.82
48854;BMP280;34673;52.808;17.856;2023-04-19T12:41:41;100763.22;;;7.83
48854;BMP280;34673;52.808;17.856;2023-04-19T12:44:08;100758.94;;;7.83
48854;BMP280;34673;52.808;17.856;2023-04-19T12:46:35;100766.69;;;7.85
48854;BMP280;34673;52.808;17.856;2023-04-19T12:49:03;100767.56;;;7.88
48854;BMP280;34673;52.808;17.856;2023-04-19T12:51:30;100768.41;;;7.87
48854;BMP280;34673;52.808;17.856;2023-04-19T12:53:57;100771.84;;;7.89
48854;BMP280;34673;52.808;17.856;2023-04-19T12:56:25;100764.09;;;7.86
48854;BMP280;34673;52.808;17.856;2023-04-19T12:58:52;100772.72;;;7.88
48854;BMP280;34673;52.808;17.856;2023-04-19T13:01:20;100769.28;;;7.89
48854;BMP280;34673;52.808;17.856;2023-04-19T13:03:47;100764.16;;;7.92
48854;BMP280;34673;52.808;17.856;2023-04-19T13:06:15;100752.09;;;7.85
48854;BMP280;34673;52.808;17.856;2023-04-19T13:08:42;100760.72;;;7.90
48854;BMP280;34673;52.808;17.856;2023-04-19T13:11:14;100755.53;;;7.87
48854;BMP280;34673;52.808;17.856;2023-04-19T13:13:41;100754.75;;;7.97
48854;BMP280;34673;52.808;17.856;2023-04-19T13:16:09;100740.25;;;8.09
48854;BMP280;34673;52.808;17.856;2023-04-19T13:18:37;100738.59;;;8.17
48854;BMP280;34673;52.808;17.856;2023-04-19T13:21:04;100743.81;;;8.20
48854;BMP280;34673;52.808;17.856;2023-04-19T13:23:34;100743.81;;;8.23
48854;BMP280;34673;52.808;17.856;2023-04-19T13:26:01;100743.00;;;8.30
48854;BMP280;34673;52.808;17.856;2023-04-19T13:28:28;100749.03;;;8.31
48854;BMP280;34673;52.808;17.856;2023-04-19T13:30:56;100748.16;;;8.30
48854;BMP280;34673;52.808;17.856;2023-04-19T13:33:23;100749.00;;;8.26
48854;BMP280;34673;52.808;17.856;2023-04-19T13:35:52;100743.81;;;8.23
48854;BMP280;34673;52.808;17.856;2023-04-19T13:38:19;100741.19;;;8.17
48854;BMP280;34673;52.808;17.856;2023-04-19T13:40:46;100737.72;;;8.13
48854;BMP280;34673;52.808;17.856;2023-04-19T13:43:13;100744.53;;;8.04
48854;BMP280;34673;52.808;17.856;2023-04-19T13:45:40;100750.44;;;7.93
48854;BMP280;34673;52.808;17.856;2023-04-19T13:48:08;100754.72;;;7.90
48854;BMP280;34673;52.808;17.856;2023-04-19T13:50:35;100758.16;;;7.90
48854;BMP280;34673;52.808;17.856;2023-04-19T13:53:02;100755.53;;;7.87
48854;BMP280;34673;52.808;17.856;2023-04-19T13:55:29;100762.34;;;7.79
48854;BMP280;34673;52.808;17.856;2023-04-19T13:57:56;100761.47;;;7.80
48854;BMP280;34673;52.808;17.856;2023-04-19T14:00:23;100749.38;;;7.71
48854;BMP280;34673;52.808;17.856;2023-04-19T14:02:50;100760.53;;;7.72
48854;BMP280;34673;52.808;17.856;2023-04-19T14:05:18;100763.91;;;7.68
48854;BMP280;34673;52.808;17.856;2023-04-19T14:07:45;100758.72;;;7.62
48854;BMP280;34673;52.808;17.856;2023-04-19T14:10:12;100757.03;;;7.67
48854;BMP280;34673;52.808;17.856;2023-04-19T14:12:39;100752.78;;;7.70
48854;BMP280;34673;52.808;17.856;2023-04-19T14:15:07;100754.53;;;7.73
48854;BMP280;34673;52.808;17.856;2023-04-19T14:17:34;100757.06;;;7.70
48854;BMP280;34673;52.808;17.856;2023-04-19T14:20:01;100762.22;;;7.70
48854;BMP280;34673;52.808;17.856;2023-04-19T14:22:32;100757.06;;;7.70
48854;BMP280;34673;52.808;17.856;2023-04-19T14:25:02;100753.63;;;7.68
48854;BMP280;34673;52.808;17.856;2023-04-19T14:27:29;100758.72;;;7.65
48854;BMP280;34673;52.808;17.856;2023-04-19T14:29:57;100764.81;;;7.68